Time;durP1;ratioP1;P1;durP2;ratioP2;P2;SDS_P1;SDS_P2;PMS_P1;PMS_P2;Temp;Humidity;BMP_temperature;BMP_pressure;BME280_temperature;BME280_humidity;BME280_pressure;Samples;Min_cycle;Max_cycle;Signal;HPM_P1;HPM_P2
2023/07/29 00:02:04;;;;;;;;;;;;;;;26.57;46.00;96594.66;4216664;28;5671;-64
2023/07/29 00:04:08;;;;;;;;;;;;;;;26.53;46.04;96604.50;4217061;28;5725;-64
2023/07/29 00:06:11;;;;;;;;;;;;;;;26.48;46.52;96618.13;4216743;28;5795;-64
2023/07/29 00:08:13;;;;;;;;;;;;;;;26.40;46.63;96618.84;4217072;28;5788;-64
2023/07/29 00:10:16;;;;;;;;;;;;;;;26.31;47.11;96604.34;4217210;28;5637;-64
2023/07/29 00:12:19;;;;;;;;;;;;;;;26.21;47.56;96585.53;4216966;28;5798;-65
2023/07/29 00:14:24;;;;;;;;;;;;;;;26.05;48.04;96569.56;4216567;28;5750;-65
2023/07/29 00:16:26;;;;;;;;;;;;;;;25.98;48.54;96560.22;4216846;28;5695;-65
2023/07/29 00:18:29;;;;;;;;;;;;;;;25.84;48.63;96554.75;4216827;28;5655;-65
2023/07/29 00:20:31;;;;;;;;;;;;;;;25.80;48.73;96546.41;4216950;28;6361;-65
2023/07/29 00:22:33;;;;;;;;;;;;;;;25.85;48.95;96545.53;4216935;28;5671;-65
2023/07/29 00:24:36;;;;;;;;;;;;;;;25.88;48.99;96563.88;4216890;28;5825;-65
2023/07/29 00:26:39;;;;;;;;;;;;;;;25.82;49.37;96546.09;4216779;28;5848;-65
2023/07/29 00:28:42;;;;;;;;;;;;;;;25.68;49.89;96542.53;4216828;28;5709;-65
2023/07/29 00:30:46;;;;;;;;;;;;;;;25.58;49.89;96537.28;4216821;28;6366;-65
2023/07/29 00:32:49;;;;;;;;;;;;;;;25.52;50.09;96539.28;4216738;28;5679;-65
2023/07/29 00:34:52;;;;;;;;;;;;;;;25.47;50.29;96537.44;4216437;28;5678;-65
2023/07/29 00:36:55;;;;;;;;;;;;;;;25.48;50.44;96538.22;4219425;28;5876;-65
2023/07/29 00:38:58;;;;;;;;;;;;;;;25.51;50.58;96533.06;4220359;28;5740;-65
2023/07/29 00:41:03;;;;;;;;;;;;;;;25.52;50.73;96539.28;4220234;28;5825;-65
2023/07/29 00:43:06;;;;;;;;;;;;;;;25.52;50.32;96539.28;4220077;28;5766;-65
2023/07/29 00:45:10;;;;;;;;;;;;;;;25.52;50.42;96531.97;4220160;28;5766;-65
2023/07/29 00:47:16;;;;;;;;;;;;;;;25.54;50.88;96532.47;4220018;28;7957;-65
2023/07/29 00:49:20;;;;;;;;;;;;;;;25.61;50.59;96548.34;4219995;28;5696;-65
2023/07/29 00:51:23;;;;;;;;;;;;;;;25.65;50.95;96537.72;4220197;28;5694;-65
2023/07/29 00:53:26;;;;;;;;;;;;;;;25.63;50.79;96548.03;4218956;28;5671;-65
2023/07/29 00:55:28;;;;;;;;;;;;;;;25.65;50.96;96541.22;4217364;28;5089;-65
2023/07/29 00:57:31;;;;;;;;;;;;;;;25.69;51.04;96546.84;4220115;28;5765;-65
2023/07/29 00:59:36;;;;;;;;;;;;;;;25.68;51.11;96537.91;4219013;28;5375;-65
2023/07/29 01:01:38;;;;;;;;;;;;;;;25.70;51.32;96545.78;4218958;28;5675;-65
2023/07/29 01:03:45;;;;;;;;;;;;;;;25.73;51.62;96539.78;4219915;28;5851;-65
2023/07/29 01:06:00;;;;;;;;;;;;;;;25.78;51.30;96543.19;4219795;28;5675;-65
2023/07/29 01:08:12;;;;;;;;;;;;;;;25.85;51.67;96550.94;4218556;28;5762;-65
2023/07/29 01:10:23;;;;;;;;;;;;;;;25.89;51.68;96546.53;4214812;28;5692;-65
2023/07/29 01:12:34;;;;;;;;;;;;;;;25.89;52.01;96545.75;4219969;28;5691;-65
2023/07/29 01:14:47;;;;;;;;;;;;;;;25.89;51.90;96546.53;4219646;28;5663;-65
2023/07/29 01:16:56;;;;;;;;;;;;;;;25.88;52.35;96541.44;4219798;28;5770;-65
2023/07/29 01:19:07;;;;;;;;;;;;;;;25.88;52.35;96544.13;4219923;28;5671;-65
2023/07/29 01:21:12;;;;;;;;;;;;;;;25.90;52.52;96548.16;4219529;28;5668;-65
2023/07/29 01:23:17;;;;;;;;;;;;;;;25.91;52.64;96551.66;4219814;28;5754;-65
2023/07/29 01:25:20;;;;;;;;;;;;;;;25.94;52.53;96553.78;4219811;28;5753;-65
2023/07/29 01:27:23;;;;;;;;;;;;;;;25.94;52.50;96553.78;4219530;28;5727;-65
2023/07/29 01:29:26;;;;;;;;;;;;;;;25.92;52.68;96548.66;4219613;28;5750;-65
2023/07/29 01:31:34;;;;;;;;;;;;;;;25.92;53.02;96542.44;4219572;28;5687;-65
2023/07/29 01:33:43;;;;;;;;;;;;;;;25.92;53.29;96542.44;4219617;28;5667;-65
2023/07/29 01:35:49;;;;;;;;;;;;;;;25.88;52.98;96536.00;4219294;28;5791;-65
2023/07/29 01:37:56;;;;;;;;;;;;;;;25.85;53.34;96542.84;4219638;28;5076;-65
2023/07/29 01:40:00;;;;;;;;;;;;;;;25.85;53.22;96553.66;4212127;28;5700;-65
2023/07/29 01:42:05;;;;;;;;;;;;;;;25.87;53.14;96558.78;4219328;28;5734;-65
2023/07/29 01:44:08;;;;;;;;;;;;;;;25.88;53.35;96555.78;4219092;28;5073;-64
2023/07/29 01:46:12;;;;;;;;;;;;;;;25.91;53.35;96567.91;4219303;28;5750;-65
2023/07/29 01:48:15;;;;;;;;;;;;;;;25.92;53.03;96569.50;4218304;28;5655;-65
2023/07/29 01:50:18;;;;;;;;;;;;;;;25.91;53.13;96552.47;4218928;28;5794;-65
2023/07/29 01:52:21;;;;;;;;;;;;;;;25.89;53.20;96553.88;4219166;28;5708;-65
2023/07/29 01:54:24;;;;;;;;;;;;;;;25.85;53.36;96555.56;4218792;28;5822;-64
2023/07/29 01:56:26;;;;;;;;;;;;;;;25.86;53.38;96554.47;4219061;28;6225;-65
2023/07/29 01:58:31;;;;;;;;;;;;;;;25.88;53.16;96550.34;4218847;28;5671;-65
2023/07/29 02:00:34;;;;;;;;;;;;;;;25.89;53.05;96551.94;4210920;28;5738;-65
2023/07/29 02:02:36;;;;;;;;;;;;;;;25.88;52.90;96552.25;4218629;28;5682;-65
2023/07/29 02:04:38;;;;;;;;;;;;;;;25.87;53.06;96550.66;4215717;28;6373;-66
2023/07/29 02:06:41;;;;;;;;;;;;;;;25.86;53.20;96547.13;4216683;28;5746;-65
2023/07/29 02:08:44;;;;;;;;;;;;;;;25.86;53.46;96549.84;4217725;28;5675;-65
2023/07/29 02:10:48;;;;;;;;;;;;;;;25.82;53.08;96540.69;4216964;28;5678;-65
2023/07/29 02:12:51;;;;;;;;;;;;;;;25.75;53.44;96537.59;4219047;28;5684;-66
2023/07/29 02:14:57;;;;;;;;;;;;;;;25.68;53.35;96545.25;4210236;28;5629;-66
2023/07/29 02:17:00;;;;;;;;;;;;;;;25.63;53.44;96538.00;4218786;28;5675;-65
2023/07/29 02:19:03;;;;;;;;;;;;;;;25.60;53.30;96546.72;4218656;28;6396;-65
2023/07/29 02:21:04;;;;;;;;;;;;;;;25.60;53.17;96549.44;4218501;28;5754;-65
2023/07/29 02:23:07;;;;;;;;;;;;;;;25.64;53.50;96546.94;4218680;28;5652;-65
2023/07/29 02:25:10;;;;;;;;;;;;;;;25.67;53.20;96557.16;4218613;28;5799;-65
2023/07/29 02:27:13;;;;;;;;;;;;;;;25.69;53.38;96555.78;4218661;28;5749;-65
2023/07/29 02:29:15;;;;;;;;;;;;;;;25.72;52.93;96551.72;4218611;28;5675;-65
2023/07/29 02:31:23;;;;;;;;;;;;;;;25.70;53.30;96552.00;4218400;28;7818;-65
2023/07/29 02:33:26;;;;;;;;;;;;;;;25.72;53.33;96557.13;4218497;28;5753;-65
2023/07/29 02:35:29;;;;;;;;;;;;;;;25.73;53.27;96553.31;4218328;28;5660;-65
2023/07/29 02:37:32;;;;;;;;;;;;;;;25.73;53.02;96556.84;4218379;28;5974;-65
2023/07/29 02:39:35;;;;;;;;;;;;;;;25.73;52.90;96553.31;4217072;28;5624;-65
2023/07/29 02:41:37;;;;;;;;;;;;;;;25.73;53.41;96550.63;4218861;28;5634;-65
2023/07/29 02:43:41;;;;;;;;;;;;;;;25.73;53.35;96551.41;4218329;28;5663;-65
2023/07/29 02:45:44;;;;;;;;;;;;;;;25.74;53.05;96544.91;4218177;28;5668;-65
2023/07/29 02:47:48;;;;;;;;;;;;;;;25.72;53.15;96551.72;4217997;28;5869;-65
2023/07/29 02:49:51;;;;;;;;;;;;;;;25.70;53.08;96548.47;4217915;28;5790;-65
2023/07/29 02:51:54;;;;;;;;;;;;;;;25.71;53.38;96548.22;4210107;28;5646;-65
2023/07/29 02:53:57;;;;;;;;;;;;;;;25.71;53.22;96553.63;4218203;28;5675;-65
2023/07/29 02:56:00;;;;;;;;;;;;;;;25.69;53.15;96549.53;4217918;28;5671;-65
2023/07/29 02:58:02;;;;;;;;;;;;;;;25.72;53.43;96549.00;4217838;28;6354;-65
2023/07/29 03:00:07;;;;;;;;;;;;;;;25.72;53.21;96549.00;4218005;28;5693;-65
2023/07/29 03:02:10;;;;;;;;;;;;;;;25.73;53.45;96553.31;4218056;28;6089;-65
2023/07/29 03:04:14;;;;;;;;;;;;;;;25.74;53.17;96557.63;4217920;28;5830;-65
2023/07/29 03:06:17;;;;;;;;;;;;;;;25.74;53.30;96553.03;4217763;28;5699;-65
2023/07/29 03:08:20;;;;;;;;;;;;;;;25.73;53.45;96559.53;4217915;28;5683;-65
2023/07/29 03:10:23;;;;;;;;;;;;;;;25.73;53.17;96556.84;4218069;28;5663;-65
2023/07/29 03:12:26;;;;;;;;;;;;;;;25.72;53.22;96552.53;4217825;28;6376;-66
2023/07/29 03:14:29;;;;;;;;;;;;;;;25.69;53.22;96544.13;4217764;28;5657;-65
2023/07/29 03:16:32;;;;;;;;;;;;;;;25.69;53.31;96546.84;4218033;28;5750;-65
2023/07/29 03:18:35;;;;;;;;;;;;;;;25.71;53.52;96559.03;4218022;28;5744;-65
2023/07/29 03:20:39;;;;;;;;;;;;;;;25.73;53.36;96556.84;4217517;28;5676;-65
2023/07/29 03:22:42;;;;;;;;;;;;;;;25.71;53.54;96552.78;4217909;28;5770;-65
2023/07/29 03:24:44;;;;;;;;;;;;;;;25.69;53.59;96555.78;4210280;28;5683;-65
2023/07/29 03:26:47;;;;;;;;;;;;;;;25.67;53.71;96557.16;4216842;28;5709;-66
2023/07/29 03:28:49;;;;;;;;;;;;;;;25.66;53.66;96550.94;4217733;28;5671;-65
2023/07/29 03:30:52;;;;;;;;;;;;;;;25.67;53.39;96549.03;4217819;28;5713;-65
2023/07/29 03:32:55;;;;;;;;;;;;;;;25.69;53.42;96539.56;4209568;28;5671;-65
2023/07/29 03:34:58;;;;;;;;;;;;;;;25.70;53.66;96524.13;4216216;28;5648;-65
2023/07/29 03:37:02;;;;;;;;;;;;;;;25.70;53.67;96532.22;4217601;28;5918;-65
2023/07/29 03:39:05;;;;;;;;;;;;;;;25.66;53.65;96533.91;4217442;28;5671;-65
2023/07/29 03:41:09;;;;;;;;;;;;;;;25.63;53.51;96529.91;4217419;28;5871;-65
2023/07/29 03:43:12;;;;;;;;;;;;;;;25.62;53.79;96543.72;4217458;28;5893;-65
2023/07/29 03:45:15;;;;;;;;;;;;;;;25.65;53.74;96549.34;4217308;28;5625;-65
2023/07/29 03:47:18;;;;;;;;;;;;;;;25.67;53.70;96547.13;4217514;28;5683;-65
2023/07/29 03:49:20;;;;;;;;;;;;;;;25.67;53.61;96544.44;4217393;28;5699;-65
2023/07/29 03:51:24;;;;;;;;;;;;;;;25.62;53.84;96543.72;4217205;28;5691;-65
2023/07/29 03:53:28;;;;;;;;;;;;;;;25.62;53.67;96554.56;4217396;28;5655;-65
2023/07/29 03:55:32;;;;;;;;;;;;;;;25.63;53.97;96543.44;4217220;28;5670;-65
2023/07/29 03:57:35;;;;;;;;;;;;;;;25.65;53.64;96554.75;4217131;28;5759;-65
2023/07/29 03:59:37;;;;;;;;;;;;;;;25.66;53.93;96558.28;4208886;28;5738;-65
2023/07/29 04:01:41;;;;;;;;;;;;;;;25.63;53.82;96554.25;4217171;28;5069;-65
2023/07/29 04:03:45;;;;;;;;;;;;;;;25.63;53.95;96556.16;4217100;28;5753;-65
2023/07/29 04:05:48;;;;;;;;;;;;;;;25.64;54.05;96558.56;4217012;28;5687;-65
2023/07/29 04:07:52;;;;;;;;;;;;;;;25.66;53.78;96558.28;4217136;28;5655;-65
2023/07/29 04:09:57;;;;;;;;;;;;;;;25.66;53.77;96560.97;4216898;28;5634;-65
2023/07/29 04:12:21;;;;;;;;;;;;;;;25.67;53.91;96563.38;4215941;28;5733;-65
2023/07/29 04:14:44;;;;;;;;;;;;;;;25.67;54.02;96568.00;4216202;28;5679;-65
2023/07/29 04:16:49;;;;;;;;;;;;;;;25.66;54.28;96571.81;4217110;28;5675;-65
2023/07/29 04:18:51;;;;;;;;;;;;;;;25.66;54.12;96572.59;4217168;28;5638;-65
2023/07/29 04:20:54;;;;;;;;;;;;;;;25.66;54.21;96577.22;4216903;28;5800;-65
2023/07/29 04:22:57;;;;;;;;;;;;;;;25.68;53.98;96585.84;4217262;28;5780;-65
2023/07/29 04:25:02;;;;;;;;;;;;;;;25.69;54.04;96584.75;4217127;28;5686;-65
2023/07/29 04:27:04;;;;;;;;;;;;;;;25.69;54.22;96592.88;4216987;28;5775;-65
2023/07/29 04:29:07;;;;;;;;;;;;;;;25.70;54.18;96591.78;4217101;28;5672;-65
2023/07/29 04:31:10;;;;;;;;;;;;;;;25.71;54.00;96596.09;4217065;28;5675;-65
2023/07/29 04:33:12;;;;;;;;;;;;;;;25.72;54.16;96592.31;4216934;28;5853;-65
2023/07/29 04:35:15;;;;;;;;;;;;;;;25.72;54.18;96597.75;4208717;28;5638;-65
2023/07/29 04:37:18;;;;;;;;;;;;;;;25.71;54.17;96593.41;4217185;28;5751;-65
2023/07/29 04:39:21;;;;;;;;;;;;;;;25.72;54.04;96592.31;4216774;28;6385;-65
2023/07/29 04:41:25;;;;;;;;;;;;;;;25.70;54.38;96595.31;4216981;28;5777;-65
2023/07/29 04:43:29;;;;;;;;;;;;;;;25.72;54.27;96601.25;4216863;28;5646;-66
2023/07/29 04:45:32;;;;;;;;;;;;;;;25.72;54.40;96595.03;4216463;28;5788;-65
2023/07/29 04:47:35;;;;;;;;;;;;;;;25.72;54.32;96603.16;4216874;28;5657;-65
2023/07/29 04:49:37;;;;;;;;;;;;;;;25.72;54.23;96598.53;4216331;28;5667;-65
2023/07/29 04:51:40;;;;;;;;;;;;;;;25.74;54.34;96603.66;4217043;28;5677;-65
2023/07/29 04:53:44;;;;;;;;;;;;;;;25.71;54.28;96591.53;4216949;28;5793;-65
2023/07/29 04:55:46;;;;;;;;;;;;;;;25.70;54.38;96589.88;4216504;28;6381;-65
2023/07/29 04:57:51;;;;;;;;;;;;;;;25.70;54.36;96589.88;4216606;28;5730;-65
2023/07/29 04:59:54;;;;;;;;;;;;;;;25.71;54.71;96582.56;4214099;28;7736;-64
2023/07/29 05:01:56;;;;;;;;;;;;;;;25.72;54.42;96578.78;4214421;28;5204;-65
2023/07/29 05:03:59;;;;;;;;;;;;;;;25.73;54.49;96589.31;4216529;28;5770;-65
2023/07/29 05:06:02;;;;;;;;;;;;;;;25.72;54.69;96586.91;4216206;28;5779;-65
2023/07/29 05:08:05;;;;;;;;;;;;;;;25.73;54.83;96591.22;4216769;28;5792;-65
2023/07/29 05:10:09;;;;;;;;;;;;;;;25.74;54.79;96592.84;4216622;28;5683;-65
2023/07/29 05:12:11;;;;;;;;;;;;;;;25.76;54.57;96590.63;4216634;28;5870;-64
2023/07/29 05:14:17;;;;;;;;;;;;;;;25.77;54.82;96594.94;4216612;28;5788;-65
2023/07/29 05:16:20;;;;;;;;;;;;;;;25.76;54.46;96596.84;4216422;28;5764;-64
2023/07/29 05:18:23;;;;;;;;;;;;;;;25.74;54.78;96596.34;4215698;28;5683;-65
2023/07/29 05:20:26;;;;;;;;;;;;;;;25.75;55.04;96592.53;4216572;28;5659;-65
2023/07/29 05:22:29;;;;;;;;;;;;;;;25.75;55.10;96594.44;4249397;27;5606;-65
2023/07/29 05:24:32;;;;;;;;;;;;;;;25.75;54.94;96597.16;4219853;28;5696;-64
2023/07/29 05:26:34;;;;;;;;;;;;;;;25.75;54.85;96594.44;4219448;28;5771;-64
2023/07/29 05:28:38;;;;;;;;;;;;;;;25.72;54.85;96593.13;4219639;28;5817;-65
2023/07/29 05:30:44;;;;;;;;;;;;;;;25.72;55.27;96592.31;4219650;28;5663;-65
2023/07/29 05:32:46;;;;;;;;;;;;;;;25.73;55.20;96588.53;4219586;28;5778;-65
2023/07/29 05:34:49;;;;;;;;;;;;;;;25.76;55.20;96596.03;4219329;28;5622;-65
2023/07/29 05:36:52;;;;;;;;;;;;;;;25.79;55.17;96593.53;4219310;28;8601;-65
2023/07/29 05:38:55;;;;;;;;;;;;;;;25.79;55.06;96592.75;4211316;28;5746;-65
2023/07/29 05:40:58;;;;;;;;;;;;;;;25.77;55.22;96589.53;4210965;28;5087;-65
2023/07/29 05:43:00;;;;;;;;;;;;;;;25.76;55.26;96587.91;4219343;28;5742;-64
2023/07/29 05:45:03;;;;;;;;;;;;;;;25.75;55.31;96583.59;4218829;28;5675;-65
2023/07/29 05:47:08;;;;;;;;;;;;;;;25.77;55.09;96582.22;4219248;28;6487;-65
2023/07/29 05:49:11;;;;;;;;;;;;;;;25.79;55.18;96585.41;4219298;28;5671;-65
2023/07/29 05:51:14;;;;;;;;;;;;;;;25.83;55.12;96582.94;4219001;28;5389;-65
2023/07/29 05:53:17;;;;;;;;;;;;;;;25.89;55.23;96584.44;4219050;28;5648;-65
2023/07/29 05:55:20;;;;;;;;;;;;;;;25.94;54.94;96584.38;4218718;28;5870;-65
2023/07/29 05:57:23;;;;;;;;;;;;;;;25.99;54.99;96578.06;4218880;28;5626;-65
2023/07/29 05:59:29;;;;;;;;;;;;;;;26.03;55.00;96581.78;4218934;28;5678;-65
2023/07/29 06:01:32;;;;;;;;;;;;;;;26.05;55.07;96593.94;4219216;28;5866;-65
2023/07/29 06:03:36;;;;;;;;;;;;;;;26.08;55.27;96585.22;4218952;28;5668;-65
2023/07/29 06:05:39;;;;;;;;;;;;;;;26.13;54.87;96593.25;4218646;28;5738;-65
2023/07/29 06:07:43;;;;;;;;;;;;;;;26.15;55.19;96605.69;4219050;28;5733;-65
2023/07/29 06:09:46;;;;;;;;;;;;;;;26.16;55.18;96602.69;4218922;28;5667;-65
2023/07/29 06:11:49;;;;;;;;;;;;;;;26.20;55.25;96600.19;4218798;28;5663;-65
2023/07/29 06:13:53;;;;;;;;;;;;;;;26.23;54.99;96605.00;4210399;28;5671;-65
2023/07/29 06:15:56;;;;;;;;;;;;;;;26.24;55.08;96612.03;4218542;28;5647;-65
2023/07/29 06:17:58;;;;;;;;;;;;;;;26.27;55.15;96608.72;4218775;28;5752;-65
2023/07/29 06:20:03;;;;;;;;;;;;;;;26.27;55.20;96609.53;4218485;28;5809;-64
2023/07/29 06:22:06;;;;;;;;;;;;;;;26.27;55.14;96603.31;4218764;28;5659;-64
2023/07/29 06:24:09;;;;;;;;;;;;;;;26.28;55.08;96605.75;4218651;28;5656;-64
2023/07/29 06:26:12;;;;;;;;;;;;;;;26.27;55.01;96603.31;4218653;28;5972;-64
2023/07/29 06:28:15;;;;;;;;;;;;;;;26.29;55.05;96595.72;4218831;28;5671;-65
2023/07/29 06:30:18;;;;;;;;;;;;;;;26.29;55.15;96606.53;4218515;28;5672;-65
2023/07/29 06:32:21;;;;;;;;;;;;;;;26.31;55.11;96607.03;4218644;28;5683;-65
2023/07/29 06:34:24;;;;;;;;;;;;;;;26.31;55.27;96615.97;4218124;28;5678;-65
2023/07/29 06:36:30;;;;;;;;;;;;;;;26.30;55.54;96619.00;4218138;28;6377;-65
2023/07/29 06:38:33;;;;;;;;;;;;;;;26.28;55.38;96621.19;4218492;28;5703;-65
2023/07/29 06:40:35;;;;;;;;;;;;;;;26.27;55.25;96614.16;4218486;28;5763;-65
2023/07/29 06:42:38;;;;;;;;;;;;;;;26.21;55.49;96609.94;4218281;28;5668;-65
2023/07/29 06:44:41;;;;;;;;;;;;;;;26.21;55.40;96616.16;4218129;28;5750;-65
2023/07/29 06:46:44;;;;;;;;;;;;;;;26.19;55.53;96610.22;4218244;28;5652;-65
2023/07/29 06:48:47;;;;;;;;;;;;;;;26.17;55.51;96604.31;4218253;28;5654;-65
2023/07/29 06:50:51;;;;;;;;;;;;;;;26.15;55.64;96598.34;4218348;28;5658;-65
2023/07/29 06:52:58;;;;;;;;;;;;;;;26.13;55.39;96604.06;4218194;28;5746;-65
2023/07/29 06:55:01;;;;;;;;;;;;;;;26.15;55.66;96605.69;4217766;28;5675;-65
2023/07/29 06:57:04;;;;;;;;;;;;;;;26.17;55.22;96598.09;4218326;28;5671;-65
2023/07/29 06:59:07;;;;;;;;;;;;;;;26.20;55.44;96597.50;4218269;28;5783;-65
2023/07/29 07:01:10;;;;;;;;;;;;;;;26.21;55.20;96599.91;4218385;28;5656;-64
2023/07/29 07:03:13;;;;;;;;;;;;;;;26.22;55.45;96601.50;4218123;28;5692;-65
2023/07/29 07:05:16;;;;;;;;;;;;;;;26.26;55.14;96594.38;4217846;28;5666;-65
2023/07/29 07:07:19;;;;;;;;;;;;;;;26.28;55.13;96588.69;4218178;28;5663;-65
2023/07/29 07:09:23;;;;;;;;;;;;;;;26.29;55.17;96595.72;4218011;28;5724;-65
2023/07/29 07:11:26;;;;;;;;;;;;;;;26.32;54.89;96600.53;4218164;28;5086;-65
2023/07/29 07:13:29;;;;;;;;;;;;;;;26.34;54.98;96603.72;4218070;28;5700;-65
2023/07/29 07:15:32;;;;;;;;;;;;;;;26.36;54.71;96602.34;4217819;28;5667;-65
2023/07/29 07:17:35;;;;;;;;;;;;;;;26.37;54.91;96603.16;4217835;28;5683;-65
2023/07/29 07:19:38;;;;;;;;;;;;;;;26.37;54.62;96605.88;4217728;28;5865;-64
2023/07/29 07:21:41;;;;;;;;;;;;;;;26.38;54.79;96612.88;4217575;28;5682;-64
2023/07/29 07:23:43;;;;;;;;;;;;;;;26.39;54.96;96609.09;4217730;28;5683;-64
2023/07/29 07:25:48;;;;;;;;;;;;;;;26.41;54.45;96606.91;4217464;28;5687;-64
2023/07/29 07:27:50;;;;;;;;;;;;;;;26.43;54.46;96585.72;4217880;28;5803;-64
2023/07/29 07:29:53;;;;;;;;;;;;;;;26.43;54.26;96582.19;4217857;28;5826;-64
2023/07/29 07:31:57;;;;;;;;;;;;;;;26.42;54.31;96581.41;4215709;28;5675;-64
2023/07/29 07:34:02;;;;;;;;;;;;;;;26.43;54.38;96580.28;4217788;28;5667;-64
2023/07/29 07:36:05;;;;;;;;;;;;;;;26.46;54.15;96590.53;4217389;28;5667;-64
2023/07/29 07:38:09;;;;;;;;;;;;;;;26.46;54.16;96604.06;4217326;28;5663;-64
2023/07/29 07:40:12;;;;;;;;;;;;;;;26.47;54.06;96602.16;4209074;28;5830;-64
2023/07/29 07:42:16;;;;;;;;;;;;;;;26.48;53.79;96588.31;4217450;28;5747;-64
2023/07/29 07:44:19;;;;;;;;;;;;;;;26.48;54.11;96582.09;4217521;28;5800;-64
2023/07/29 07:46:22;;;;;;;;;;;;;;;26.50;53.73;96591.53;4216564;28;5746;-64
2023/07/29 07:48:25;;;;;;;;;;;;;;;26.52;53.78;96592.06;4217265;28;5667;-64
2023/07/29 07:50:30;;;;;;;;;;;;;;;26.53;53.58;96599.06;4216880;28;5634;-65
2023/07/29 07:52:33;;;;;;;;;;;;;;;26.55;53.83;96599.56;4217346;28;5705;-65
2023/07/29 07:54:36;;;;;;;;;;;;;;;26.55;53.64;96598.78;4217470;28;5758;-65
2023/07/29 07:56:37;;;;;;;;;;;;;;;26.58;53.57;96601.69;4217082;28;5781;-65
2023/07/29 07:58:42;;;;;;;;;;;;;;;26.59;53.51;96602.47;4217257;28;5659;-65
2023/07/29 08:00:45;;;;;;;;;;;;;;;26.60;53.37;96604.88;4217531;28;5159;-65
2023/07/29 08:02:48;;;;;;;;;;;;;;;26.61;53.29;96614.63;4217257;28;5637;-65
2023/07/29 08:04:51;;;;;;;;;;;;;;;26.59;53.43;96616.84;4217167;28;5738;-64
2023/07/29 08:06:54;;;;;;;;;;;;;;;26.60;53.20;96618.44;4206230;28;5213;-65
2023/07/29 08:08:57;;;;;;;;;;;;;;;26.60;53.16;96629.28;4213478;28;5858;-65
2023/07/29 08:11:00;;;;;;;;;;;;;;;26.62;53.09;96629.00;4216660;28;5642;-65
2023/07/29 08:13:02;;;;;;;;;;;;;;;26.61;53.04;96620.03;4216662;28;5680;-65
2023/07/29 08:15:07;;;;;;;;;;;;;;;26.61;53.01;96630.09;4216625;28;5751;-65
2023/07/29 08:17:10;;;;;;;;;;;;;;;26.61;53.09;96630.88;4215119;28;5754;-65
2023/07/29 08:19:13;;;;;;;;;;;;;;;26.60;52.86;96629.28;4217098;28;5652;-65
2023/07/29 08:21:16;;;;;;;;;;;;;;;26.60;52.78;96640.13;4211784;28;5663;-65
2023/07/29 08:23:18;;;;;;;;;;;;;;;26.59;52.95;96624.97;4213090;28;5667;-66
2023/07/29 08:25:21;;;;;;;;;;;;;;;26.57;52.91;96624.47;4216647;28;5671;-65
2023/07/29 08:27:24;;;;;;;;;;;;;;;26.59;52.88;96619.56;4216694;28;5648;-65
2023/07/29 08:29:26;;;;;;;;;;;;;;;26.58;52.85;96620.66;4216732;28;5642;-65
2023/07/29 08:31:33;;;;;;;;;;;;;;;26.58;52.65;96628.78;4216603;28;6578;-65
2023/07/29 08:33:36;;;;;;;;;;;;;;;26.58;52.78;96633.41;4216878;28;7703;-65
2023/07/29 08:35:39;;;;;;;;;;;;;;;26.57;52.60;96629.09;4215964;28;5889;-65
2023/07/29 08:37:41;;;;;;;;;;;;;;;26.57;52.66;96627.19;4216952;28;5762;-66
2023/07/29 08:39:44;;;;;;;;;;;;;;;26.57;52.69;96629.91;4213377;28;6289;-65
2023/07/29 08:41:55;;;;;;;;;;;;;;;26.57;52.59;96629.91;4216687;28;5671;-65
2023/07/29 08:44:07;;;;;;;;;;;;;;;26.57;52.45;96620.97;4214687;28;5827;-65
2023/07/29 08:46:15;;;;;;;;;;;;;;;26.55;52.27;96623.16;4211371;28;5644;-65
2023/07/29 08:48:30;;;;;;;;;;;;;;;26.53;52.31;96619.97;4215879;28;5659;-65
2023/07/29 08:50:33;;;;;;;;;;;;;;;26.52;52.39;96611.03;4214494;28;5703;-65
2023/07/29 08:52:38;;;;;;;;;;;;;;;26.52;52.53;96611.03;4214056;28;5804;-65
2023/07/29 08:54:41;;;;;;;;;;;;;;;26.49;52.35;96597.25;4209772;28;5858;-65
2023/07/29 08:56:44;;;;;;;;;;;;;;;26.46;52.40;96601.38;4217127;28;5671;-65
2023/07/29 08:58:48;;;;;;;;;;;;;;;26.47;52.47;96619.22;4218940;28;5682;-65
2023/07/29 09:00:51;;;;;;;;;;;;;;;26.50;52.73;96624.03;4219435;28;6460;-66
2023/07/29 09:02:55;;;;;;;;;;;;;;;26.50;52.47;96634.88;4211864;28;5664;-66
2023/07/29 09:04:59;;;;;;;;;;;;;;;26.51;52.63;96641.94;4213432;28;5673;-66
2023/07/29 09:07:02;;;;;;;;;;;;;;;26.51;52.86;96641.94;4214758;28;5659;-65
2023/07/29 09:09:06;;;;;;;;;;;;;;;26.52;52.98;96637.31;4214050;28;6520;-66
2023/07/29 09:11:09;;;;;;;;;;;;;;;26.51;52.85;96636.53;4211653;28;5664;-66
2023/07/29 09:13:11;;;;;;;;;;;;;;;26.53;52.82;96645.16;4218979;28;5893;-65
2023/07/29 09:27:07;;;;;;;;;;;;;;;26.67;53.82;96645.16;4248018;27;10370;-65
2023/07/29 09:29:10;;;;;;;;;;;;;;;26.70;53.99;96639.94;4247469;27;5673;-66
2023/07/29 09:31:19;;;;;;;;;;;;;;;26.75;53.64;96638.25;4246148;27;5645;-65
2023/07/29 09:33:23;;;;;;;;;;;;;;;26.75;53.72;96641.78;4246670;27;5609;-66
2023/07/29 09:35:28;;;;;;;;;;;;;;;26.76;53.69;96642.56;4242789;27;5882;-66
2023/07/29 09:37:33;;;;;;;;;;;;;;;26.74;53.61;96634.75;4241203;27;5786;-66
2023/07/29 09:39:35;;;;;;;;;;;;;;;26.73;53.42;96633.13;4241824;27;5794;-66
2023/07/29 09:41:38;;;;;;;;;;;;;;;26.73;53.56;96621.47;4247464;27;5649;-66
2023/07/29 09:43:42;;;;;;;;;;;;;;;26.73;53.35;96625.00;4244745;27;5752;-66
2023/07/29 09:45:47;;;;;;;;;;;;;;;26.72;53.22;96626.09;4247179;27;5814;-66
2023/07/29 09:47:51;;;;;;;;;;;;;;;26.74;53.28;96623.91;4248211;27;5654;-66
2023/07/29 09:49:54;;;;;;;;;;;;;;;26.75;53.34;96632.84;4243821;27;6367;-66
2023/07/29 09:51:58;;;;;;;;;;;;;;;26.75;53.17;96639.06;4243306;27;5676;-66
2023/07/29 09:54:03;;;;;;;;;;;;;;;26.76;53.16;96642.56;4247418;27;5823;-67
2023/07/29 09:56:06;;;;;;;;;;;;;;;26.74;53.07;96647.50;4231427;27;5778;-67
2023/07/29 09:58:09;;;;;;;;;;;;;;;26.75;53.26;96649.09;4242150;27;5819;-67
2023/07/29 10:00:14;;;;;;;;;;;;;;;26.76;53.17;96637.94;4248112;27;5675;-67
2023/07/29 10:02:17;;;;;;;;;;;;;;;26.75;52.99;96628.22;4247077;27;5758;-67
2023/07/29 10:04:21;;;;;;;;;;;;;;;26.76;53.06;96631.72;4243958;27;5802;-64
2023/07/29 10:06:24;;;;;;;;;;;;;;;26.77;53.12;96644.19;4245833;27;5786;-64
2023/07/29 10:08:29;;;;;;;;;;;;;;;26.76;52.85;96643.38;4246513;27;5778;-64
2023/07/29 10:10:31;;;;;;;;;;;;;;;26.76;52.90;96646.09;4245102;27;5646;-67
2023/07/29 10:12:35;;;;;;;;;;;;;;;26.76;52.68;96642.56;4246410;27;5638;-66
2023/07/29 10:14:39;;;;;;;;;;;;;;;26.74;52.89;96644.78;4247934;27;5678;-65
2023/07/29 10:16:45;;;;;;;;;;;;;;;26.76;52.88;96648.81;4247482;27;5797;-66
2023/07/29 10:18:48;;;;;;;;;;;;;;;26.77;52.62;96655.03;4239500;27;5780;-65
2023/07/29 10:20:52;;;;;;;;;;;;;;;26.76;52.71;96653.41;4236925;27;5957;-65
2023/07/29 10:23:00;;;;;;;;;;;;;;;26.76;52.58;96664.28;4246063;27;5757;-64
2023/07/29 10:25:05;;;;;;;;;;;;;;;26.76;52.60;96661.56;4240936;27;5080;-64
2023/07/29 10:27:13;;;;;;;;;;;;;;;26.76;52.68;96670.50;4226983;27;6645;-64
2023/07/29 10:29:20;;;;;;;;;;;;;;;26.75;52.61;96660.75;4228990;28;5643;-63
2023/07/29 10:31:24;;;;;;;;;;;;;;;26.77;52.81;96661.25;4229210;28;5650;-64
2023/07/29 10:33:28;;;;;;;;;;;;;;;26.79;52.78;96660.94;4235128;28;6187;-64
2023/07/29 10:35:31;;;;;;;;;;;;;;;26.80;52.73;96668.78;4236059;27;5807;-66
2023/07/29 10:37:35;;;;;;;;;;;;;;;26.81;52.83;96677.72;4235752;28;7710;-65
2023/07/29 10:39:42;;;;;;;;;;;;;;;26.81;52.79;96673.09;4236032;28;5642;-65
2023/07/29 10:41:59;;;;;;;;;;;;;;;26.82;52.94;96677.41;4236603;28;5724;-65
2023/07/29 10:44:01;;;;;;;;;;;;;;;26.81;53.04;96670.38;4236736;28;5778;-65
2023/07/29 10:46:18;;;;;;;;;;;;;;;26.81;53.06;96673.09;4236405;28;5785;-65
2023/07/29 10:48:43;;;;;;;;;;;;;;;26.81;53.07;96677.72;4236135;28;5875;-65
2023/07/29 10:50:46;;;;;;;;;;;;;;;26.83;53.19;96670.09;4236417;28;5893;-65
2023/07/29 10:52:52;;;;;;;;;;;;;;;26.82;52.93;96668.47;4236176;28;5646;-65
2023/07/29 10:54:54;;;;;;;;;;;;;;;26.83;53.15;96661.94;4236263;28;5638;-65
2023/07/29 10:56:59;;;;;;;;;;;;;;;26.83;53.03;96665.47;4234667;28;5907;-65
2023/07/29 10:59:24;;;;;;;;;;;;;;;26.83;53.03;96670.09;4236243;28;6349;-65
2023/07/29 11:01:32;;;;;;;;;;;;;;;26.85;53.16;96686.88;4230893;28;5665;-65
2023/07/29 11:03:35;;;;;;;;;;;;;;;26.83;53.25;96684.44;4236342;28;5801;-65
2023/07/29 11:05:50;;;;;;;;;;;;;;;26.83;53.15;96683.66;4236097;28;5650;-65
2023/07/29 11:07:53;;;;;;;;;;;;;;;26.84;53.47;96677.13;4236092;28;5666;-65